sensor_id;sensor_type;location;lat;lon;timestamp;P1;durP1;ratioP1;P2;durP2;ratioP2
14396;SDS011;50653;47.810;13.022;2023-04-25T00:01:23;12.83;;;2.30;;
14396;SDS011;50653;47.810;13.022;2023-04-25T00:03:48;3.27;;;2.00;;
14396;SDS011;50653;47.810;13.022;2023-04-25T00:06:15;1.40;;;1.30;;
14396;SDS011;50653;47.810;13.022;2023-04-25T00:08:41;2.00;;;1.90;;
14396;SDS011;50653;47.810;13.022;2023-04-25T00:11:06;2.47;;;1.53;;
14396;SDS011;50653;47.810;13.022;2023-04-25T00:13:32;1.60;;;1.50;;
14396;SDS011;50653;47.810;13.022;2023-04-25T00:15:58;2.37;;;1.80;;
14396;SDS011;50653;47.810;13.022;2023-04-25T00:18:25;1.40;;;1.30;;
14396;SDS011;50653;47.810;13.022;2023-04-25T00:20:54;2.40;;;2.30;;
14396;SDS011;50653;47.810;13.022;2023-04-25T00:23:20;1.90;;;1.80;;
14396;SDS011;50653;47.810;13.022;2023-04-25T00:25:47;3.80;;;2.10;;
14396;SDS011;50653;47.810;13.022;2023-04-25T00:28:16;2.37;;;2.27;;
14396;SDS011;50653;47.810;13.022;2023-04-25T00:30:42;3.90;;;2.37;;
14396;SDS011;50653;47.810;13.022;2023-04-25T00:33:08;1.87;;;1.33;;
14396;SDS011;50653;47.810;13.022;2023-04-25T00:35:34;4.70;;;2.20;;
14396;SDS011;50653;47.810;13.022;2023-04-25T00:38:00;3.33;;;2.60;;
14396;SDS011;50653;47.810;13.022;2023-04-25T00:40:26;2.20;;;2.07;;
14396;SDS011;50653;47.810;13.022;2023-04-25T00:42:53;2.97;;;2.20;;
14396;SDS011;50653;47.810;13.022;2023-04-25T00:45:19;1.80;;;1.70;;
14396;SDS011;50653;47.810;13.022;2023-04-25T00:47:45;2.57;;;2.37;;
14396;SDS011;50653;47.810;13.022;2023-04-25T00:50:13;2.73;;;1.77;;
14396;SDS011;50653;47.810;13.022;2023-04-25T00:52:40;3.40;;;2.33;;
14396;SDS011;50653;47.810;13.022;2023-04-25T00:55:09;3.33;;;2.43;;
14396;SDS011;50653;47.810;13.022;2023-04-25T00:57:36;3.53;;;3.33;;
14396;SDS011;50653;47.810;13.022;2023-04-25T01:00:02;2.20;;;1.97;;
14396;SDS011;50653;47.810;13.022;2023-04-25T01:02:30;1.70;;;1.60;;
14396;SDS011;50653;47.810;13.022;2023-04-25T01:04:57;3.20;;;1.60;;
14396;SDS011;50653;47.810;13.022;2023-04-25T01:07:23;1.90;;;1.80;;
14396;SDS011;50653;47.810;13.022;2023-04-25T01:09:49;2.40;;;2.30;;
14396;SDS011;50653;47.810;13.022;2023-04-25T01:12:17;1.80;;;1.67;;
14396;SDS011;50653;47.810;13.022;2023-04-25T01:14:43;1.80;;;1.70;;
14396;SDS011;50653;47.810;13.022;2023-04-25T01:17:09;2.23;;;2.03;;
14396;SDS011;50653;47.810;13.022;2023-04-25T01:19:35;2.10;;;2.00;;
14396;SDS011;50653;47.810;13.022;2023-04-25T01:22:01;2.10;;;1.90;;
14396;SDS011;50653;47.810;13.022;2023-04-25T01:24:29;2.80;;;1.70;;
14396;SDS011;50653;47.810;13.022;2023-04-25T01:26:57;1.83;;;1.73;;
14396;SDS011;50653;47.810;13.022;2023-04-25T01:29:27;2.73;;;2.53;;
14396;SDS011;50653;47.810;13.022;2023-04-25T01:31:54;2.07;;;1.90;;
14396;SDS011;50653;47.810;13.022;2023-04-25T01:34:20;11.80;;;2.40;;
14396;SDS011;50653;47.810;13.022;2023-04-25T01:36:49;2.47;;;2.27;;
14396;SDS011;50653;47.810;13.022;2023-04-25T01:39:16;2.00;;;1.90;;
14396;SDS011;50653;47.810;13.022;2023-04-25T01:41:43;1.60;;;1.50;;
14396;SDS011;50653;47.810;13.022;2023-04-25T01:44:10;5.60;;;1.83;;
14396;SDS011;50653;47.810;13.022;2023-04-25T01:46:36;3.30;;;1.77;;
14396;SDS011;50653;47.810;13.022;2023-04-25T01:49:03;2.50;;;2.40;;
14396;SDS011;50653;47.810;13.022;2023-04-25T01:51:29;2.70;;;1.80;;
14396;SDS011;50653;47.810;13.022;2023-04-25T01:53:57;2.03;;;1.90;;
14396;SDS011;50653;47.810;13.022;2023-04-25T01:56:23;2.53;;;1.60;;
14396;SDS011;50653;47.810;13.022;2023-04-25T01:58:49;2.63;;;2.20;;
14396;SDS011;50653;47.810;13.022;2023-04-25T02:01:19;2.33;;;2.13;;
14396;SDS011;50653;47.810;13.022;2023-04-25T02:03:56;2.13;;;2.03;;
14396;SDS011;50653;47.810;13.022;2023-04-25T02:06:31;3.20;;;1.67;;
14396;SDS011;50653;47.810;13.022;2023-04-25T02:08:57;1.90;;;1.80;;
14396;SDS011;50653;47.810;13.022;2023-04-25T02:11:22;1.77;;;1.67;;
14396;SDS011;50653;47.810;13.022;2023-04-25T02:14:20;2.40;;;1.77;;
14396;SDS011;50653;47.810;13.022;2023-04-25T02:16:53;2.37;;;2.07;;
14396;SDS011;50653;47.810;13.022;2023-04-25T02:19:19;2.47;;;2.20;;
14396;SDS011;50653;47.810;13.022;2023-04-25T02:21:46;3.33;;;1.93;;
14396;SDS011;50653;47.810;13.022;2023-04-25T02:24:11;2.40;;;2.20;;
14396;SDS011;50653;47.810;13.022;2023-04-25T02:26:37;2.23;;;2.13;;
14396;SDS011;50653;47.810;13.022;2023-04-25T02:29:06;1.93;;;1.53;;
14396;SDS011;50653;47.810;13.022;2023-04-25T02:31:32;2.63;;;2.43;;
14396;SDS011;50653;47.810;13.022;2023-04-25T02:33:57;1.70;;;1.60;;
14396;SDS011;50653;47.810;13.022;2023-04-25T02:36:23;2.20;;;2.10;;
14396;SDS011;50653;47.810;13.022;2023-04-25T02:38:49;1.83;;;1.73;;
14396;SDS011;50653;47.810;13.022;2023-04-25T02:41:15;3.53;;;1.87;;
14396;SDS011;50653;47.810;13.022;2023-04-25T02:43:40;3.13;;;2.17;;
14396;SDS011;50653;47.810;13.022;2023-04-25T02:46:06;2.20;;;1.43;;
14396;SDS011;50653;47.810;13.022;2023-04-25T02:48:32;2.00;;;1.80;;
14396;SDS011;50653;47.810;13.022;2023-04-25T02:50:58;2.63;;;2.43;;
14396;SDS011;50653;47.810;13.022;2023-04-25T02:53:24;2.30;;;2.20;;
14396;SDS011;50653;47.810;13.022;2023-04-25T02:55:51;1.80;;;1.70;;
14396;SDS011;50653;47.810;13.022;2023-04-25T02:58:18;2.60;;;2.40;;
14396;SDS011;50653;47.810;13.022;2023-04-25T03:00:47;2.53;;;2.17;;
14396;SDS011;50653;47.810;13.022;2023-04-25T03:03:14;1.83;;;1.73;;
14396;SDS011;50653;47.810;13.022;2023-04-25T03:05:42;1.70;;;1.60;;
14396;SDS011;50653;47.810;13.022;2023-04-25T03:08:09;4.70;;;1.67;;
14396;SDS011;50653;47.810;13.022;2023-04-25T03:10:36;3.00;;;1.70;;
14396;SDS011;50653;47.810;13.022;2023-04-25T03:13:05;3.23;;;2.77;;
14396;SDS011;50653;47.810;13.022;2023-04-25T03:15:30;2.20;;;1.93;;
14396;SDS011;50653;47.810;13.022;2023-04-25T03:17:56;1.70;;;1.50;;
14396;SDS011;50653;47.810;13.022;2023-04-25T03:20:22;6.83;;;1.67;;
14396;SDS011;50653;47.810;13.022;2023-04-25T03:22:48;2.40;;;2.30;;
14396;SDS011;50653;47.810;13.022;2023-04-25T03:25:14;2.50;;;1.90;;
14396;SDS011;50653;47.810;13.022;2023-04-25T03:27:39;2.50;;;1.70;;
14396;SDS011;50653;47.810;13.022;2023-04-25T03:30:06;1.90;;;1.80;;
14396;SDS011;50653;47.810;13.022;2023-04-25T03:32:34;2.13;;;2.00;;
14396;SDS011;50653;47.810;13.022;2023-04-25T03:35:00;2.43;;;2.27;;
14396;SDS011;50653;47.810;13.022;2023-04-25T03:37:26;6.93;;;2.40;;
14396;SDS011;50653;47.810;13.022;2023-04-25T03:39:53;2.30;;;2.20;;
14396;SDS011;50653;47.810;13.022;2023-04-25T03:42:20;2.43;;;2.33;;
14396;SDS011;50653;47.810;13.022;2023-04-25T03:44:48;1.70;;;1.60;;
14396;SDS011;50653;47.810;13.022;2023-04-25T03:47:14;8.30;;;2.03;;
14396;SDS011;50653;47.810;13.022;2023-04-25T03:49:41;3.93;;;2.10;;
14396;SDS011;50653;47.810;13.022;2023-04-25T03:52:06;1.67;;;1.57;;
14396;SDS011;50653;47.810;13.022;2023-04-25T03:54:36;3.17;;;2.97;;
14396;SDS011;50653;47.810;13.022;2023-04-25T03:57:08;2.37;;;2.17;;
14396;SDS011;50653;47.810;13.022;2023-04-25T03:59:37;2.80;;;2.00;;
14396;SDS011;50653;47.810;13.022;2023-04-25T04:02:04;3.37;;;1.80;;
14396;SDS011;50653;47.810;13.022;2023-04-25T04:04:32;2.33;;;1.40;;
14396;SDS011;50653;47.810;13.022;2023-04-25T04:06:58;2.10;;;2.00;;
14396;SDS011;50653;47.810;13.022;2023-04-25T04:09:27;1.73;;;1.63;;
14396;SDS011;50653;47.810;13.022;2023-04-25T04:11:54;4.50;;;1.97;;
14396;SDS011;50653;47.810;13.022;2023-04-25T04:14:20;2.17;;;1.97;;
14396;SDS011;50653;47.810;13.022;2023-04-25T04:16:47;1.63;;;1.53;;
14396;SDS011;50653;47.810;13.022;2023-04-25T04:19:13;2.50;;;2.30;;
14396;SDS011;50653;47.810;13.022;2023-04-25T04:21:45;2.30;;;2.20;;
14396;SDS011;50653;47.810;13.022;2023-04-25T04:24:10;4.53;;;1.90;;
14396;SDS011;50653;47.810;13.022;2023-04-25T04:26:49;4.20;;;1.93;;
14396;SDS011;50653;47.810;13.022;2023-04-25T04:29:29;2.87;;;2.03;;
14396;SDS011;50653;47.810;13.022;2023-04-25T04:31:59;2.00;;;1.80;;
14396;SDS011;50653;47.810;13.022;2023-04-25T04:34:26;2.80;;;1.67;;
14396;SDS011;50653;47.810;13.022;2023-04-25T04:36:52;1.93;;;1.83;;
14396;SDS011;50653;47.810;13.022;2023-04-25T04:39:18;2.87;;;2.57;;
14396;SDS011;50653;47.810;13.022;2023-04-25T04:42:00;4.90;;;4.50;;
14396;SDS011;50653;47.810;13.022;2023-04-25T04:44:42;3.40;;;2.97;;
14396;SDS011;50653;47.810;13.022;2023-04-25T04:47:24;2.60;;;2.30;;
14396;SDS011;50653;47.810;13.022;2023-04-25T04:49:58;1.93;;;1.83;;
14396;SDS011;50653;47.810;13.022;2023-04-25T04:52:40;2.10;;;1.90;;
14396;SDS011;50653;47.810;13.022;2023-04-25T04:55:26;2.80;;;1.90;;
14396;SDS011;50653;47.810;13.022;2023-04-25T04:58:15;2.63;;;2.43;;
14396;SDS011;50653;47.810;13.022;2023-04-25T05:01:05;2.40;;;2.20;;
14396;SDS011;50653;47.810;13.022;2023-04-25T05:03:33;2.27;;;2.10;;
14396;SDS011;50653;47.810;13.022;2023-04-25T05:06:02;2.00;;;1.90;;
14396;SDS011;50653;47.810;13.022;2023-04-25T05:08:44;2.20;;;2.00;;
14396;SDS011;50653;47.810;13.022;2023-04-25T05:11:44;2.80;;;2.60;;
14396;SDS011;50653;47.810;13.022;2023-04-25T05:14:25;3.90;;;2.30;;
14396;SDS011;50653;47.810;13.022;2023-04-25T05:17:15;2.83;;;2.57;;
14396;SDS011;50653;47.810;13.022;2023-04-25T05:19:59;2.10;;;2.00;;
14396;SDS011;50653;47.810;13.022;2023-04-25T05:22:43;1.73;;;1.50;;
14396;SDS011;50653;47.810;13.022;2023-04-25T05:25:27;2.73;;;2.53;;
14396;SDS011;50653;47.810;13.022;2023-04-25T05:27:59;2.60;;;2.40;;
14396;SDS011;50653;47.810;13.022;2023-04-25T05:30:37;3.73;;;2.60;;
14396;SDS011;50653;47.810;13.022;2023-04-25T05:33:10;3.83;;;3.30;;
14396;SDS011;50653;47.810;13.022;2023-04-25T05:35:36;5.77;;;3.10;;
14396;SDS011;50653;47.810;13.022;2023-04-25T05:38:02;2.60;;;2.40;;
14396;SDS011;50653;47.810;13.022;2023-04-25T05:40:50;5.67;;;2.60;;
14396;SDS011;50653;47.810;13.022;2023-04-25T05:43:34;3.60;;;2.60;;
14396;SDS011;50653;47.810;13.022;2023-04-25T05:46:20;5.10;;;2.73;;
14396;SDS011;50653;47.810;13.022;2023-04-25T05:49:08;5.57;;;3.73;;
14396;SDS011;50653;47.810;13.022;2023-04-25T05:51:54;4.17;;;3.80;;
14396;SDS011;50653;47.810;13.022;2023-04-25T05:54:39;2.43;;;2.23;;
14396;SDS011;50653;47.810;13.022;2023-04-25T05:57:04;2.97;;;2.77;;
14396;SDS011;50653;47.810;13.022;2023-04-25T05:59:31;4.03;;;2.70;;
14396;SDS011;50653;47.810;13.022;2023-04-25T06:01:57;2.83;;;2.63;;
14396;SDS011;50653;47.810;13.022;2023-04-25T06:04:23;4.27;;;1.73;;
14396;SDS011;50653;47.810;13.022;2023-04-25T06:06:48;2.50;;;2.30;;
14396;SDS011;50653;47.810;13.022;2023-04-25T06:09:14;2.50;;;2.30;;
14396;SDS011;50653;47.810;13.022;2023-04-25T06:11:40;5.60;;;2.07;;
14396;SDS011;50653;47.810;13.022;2023-04-25T06:14:06;2.73;;;2.17;;
14396;SDS011;50653;47.810;13.022;2023-04-25T06:16:35;4.87;;;1.80;;
14396;SDS011;50653;47.810;13.022;2023-04-25T06:19:00;1.93;;;1.73;;
14396;SDS011;50653;47.810;13.022;2023-04-25T06:21:26;3.30;;;2.53;;
14396;SDS011;50653;47.810;13.022;2023-04-25T06:23:52;3.27;;;2.27;;
14396;SDS011;50653;47.810;13.022;2023-04-25T06:26:20;2.77;;;2.57;;
14396;SDS011;50653;47.810;13.022;2023-04-25T06:28:47;2.77;;;2.57;;
14396;SDS011;50653;47.810;13.022;2023-04-25T06:31:12;2.77;;;2.40;;
14396;SDS011;50653;47.810;13.022;2023-04-25T06:33:40;3.40;;;2.57;;
14396;SDS011;50653;47.810;13.022;2023-04-25T06:36:06;2.13;;;1.90;;
14396;SDS011;50653;47.810;13.022;2023-04-25T06:38:32;2.37;;;2.13;;
14396;SDS011;50653;47.810;13.022;2023-04-25T06:40:58;2.00;;;1.67;;
14396;SDS011;50653;47.810;13.022;2023-04-25T06:43:26;5.90;;;1.77;;
14396;SDS011;50653;47.810;13.022;2023-04-25T06:46:04;1.80;;;1.70;;
14396;SDS011;50653;47.810;13.022;2023-04-25T06:48:32;1.83;;;1.60;;
14396;SDS011;50653;47.810;13.022;2023-04-25T06:50:58;1.67;;;1.57;;
14396;SDS011;50653;47.810;13.022;2023-04-25T06:53:25;2.80;;;1.47;;
14396;SDS011;50653;47.810;13.022;2023-04-25T06:55:57;1.67;;;1.57;;
14396;SDS011;50653;47.810;13.022;2023-04-25T06:58:26;2.50;;;1.37;;
14396;SDS011;50653;47.810;13.022;2023-04-25T07:01:08;1.60;;;1.43;;
14396;SDS011;50653;47.810;13.022;2023-04-25T07:03:33;6.03;;;2.30;;
14396;SDS011;50653;47.810;13.022;2023-04-25T07:06:05;3.03;;;2.60;;
14396;SDS011;50653;47.810;13.022;2023-04-25T07:08:31;3.03;;;1.43;;
14396;SDS011;50653;47.810;13.022;2023-04-25T07:10:57;6.30;;;1.77;;
14396;SDS011;50653;47.810;13.022;2023-04-25T07:13:23;5.47;;;1.60;;
14396;SDS011;50653;47.810;13.022;2023-04-25T07:15:49;1.97;;;1.30;;
14396;SDS011;50653;47.810;13.022;2023-04-25T07:18:16;1.20;;;1.07;;
14396;SDS011;50653;47.810;13.022;2023-04-25T07:20:42;3.30;;;1.73;;
14396;SDS011;50653;47.810;13.022;2023-04-25T07:23:08;1.53;;;1.30;;
14396;SDS011;50653;47.810;13.022;2023-04-25T07:25:34;1.43;;;1.27;;
14396;SDS011;50653;47.810;13.022;2023-04-25T07:28:01;2.77;;;1.70;;
14396;SDS011;50653;47.810;13.022;2023-04-25T07:30:26;5.40;;;1.83;;
14396;SDS011;50653;47.810;13.022;2023-04-25T07:32:53;2.03;;;1.37;;
14396;SDS011;50653;47.810;13.022;2023-04-25T07:35:19;2.07;;;1.57;;
14396;SDS011;50653;47.810;13.022;2023-04-25T07:37:46;6.03;;;2.10;;
14396;SDS011;50653;47.810;13.022;2023-04-25T07:40:16;1.90;;;1.73;;
14396;SDS011;50653;47.810;13.022;2023-04-25T07:42:49;1.33;;;1.00;;
14396;SDS011;50653;47.810;13.022;2023-04-25T07:45:20;2.40;;;1.77;;
14396;SDS011;50653;47.810;13.022;2023-04-25T07:47:46;2.27;;;1.17;;
14396;SDS011;50653;47.810;13.022;2023-04-25T07:50:12;2.50;;;2.30;;
14396;SDS011;50653;47.810;13.022;2023-04-25T07:52:37;2.27;;;1.80;;
14396;SDS011;50653;47.810;13.022;2023-04-25T07:55:17;1.60;;;1.17;;
14396;SDS011;50653;47.810;13.022;2023-04-25T07:58:15;1.87;;;1.40;;
14396;SDS011;50653;47.810;13.022;2023-04-25T08:00:46;1.47;;;1.37;;
14396;SDS011;50653;47.810;13.022;2023-04-25T08:03:25;2.50;;;1.73;;
14396;SDS011;50653;47.810;13.022;2023-04-25T08:05:52;1.60;;;1.50;;
14396;SDS011;50653;47.810;13.022;2023-04-25T08:08:18;6.60;;;1.53;;
14396;SDS011;50653;47.810;13.022;2023-04-25T08:10:44;1.87;;;1.77;;
14396;SDS011;50653;47.810;13.022;2023-04-25T08:13:12;1.77;;;1.67;;
14396;SDS011;50653;47.810;13.022;2023-04-25T08:15:38;4.73;;;1.27;;
14396;SDS011;50653;47.810;13.022;2023-04-25T08:18:04;3.87;;;1.80;;
14396;SDS011;50653;47.810;13.022;2023-04-25T08:20:30;1.93;;;1.37;;
14396;SDS011;50653;47.810;13.022;2023-04-25T08:22:58;5.20;;;1.57;;
14396;SDS011;50653;47.810;13.022;2023-04-25T08:25:50;1.60;;;1.50;;
14396;SDS011;50653;47.810;13.022;2023-04-25T08:28:19;2.30;;;2.10;;
14396;SDS011;50653;47.810;13.022;2023-04-25T08:30:45;2.60;;;1.77;;
14396;SDS011;50653;47.810;13.022;2023-04-25T08:33:16;4.73;;;2.93;;
14396;SDS011;50653;47.810;13.022;2023-04-25T08:35:44;1.80;;;1.70;;
14396;SDS011;50653;47.810;13.022;2023-04-25T08:38:12;1.37;;;1.27;;
14396;SDS011;50653;47.810;13.022;2023-04-25T08:40:38;8.50;;;2.63;;
14396;SDS011;50653;47.810;13.022;2023-04-25T08:43:13;2.60;;;1.80;;
14396;SDS011;50653;47.810;13.022;2023-04-25T08:45:40;3.40;;;2.20;;
14396;SDS011;50653;47.810;13.022;2023-04-25T08:48:11;3.77;;;2.00;;
14396;SDS011;50653;47.810;13.022;2023-04-25T08:50:39;3.77;;;1.60;;
14396;SDS011;50653;47.810;13.022;2023-04-25T08:53:09;6.60;;;2.17;;
14396;SDS011;50653;47.810;13.022;2023-04-25T08:55:38;3.00;;;1.90;;
14396;SDS011;50653;47.810;13.022;2023-04-25T08:58:08;5.47;;;1.47;;
14396;SDS011;50653;47.810;13.022;2023-04-25T09:00:36;1.60;;;1.50;;
14396;SDS011;50653;47.810;13.022;2023-04-25T09:03:02;3.00;;;1.47;;
14396;SDS011;50653;47.810;13.022;2023-04-25T09:05:32;2.70;;;1.53;;
14396;SDS011;50653;47.810;13.022;2023-04-25T09:07:58;2.10;;;1.80;;
14396;SDS011;50653;47.810;13.022;2023-04-25T09:10:26;1.53;;;1.43;;
14396;SDS011;50653;47.810;13.022;2023-04-25T09:13:08;5.90;;;1.77;;
14396;SDS011;50653;47.810;13.022;2023-04-25T09:15:56;1.67;;;1.57;;
14396;SDS011;50653;47.810;13.022;2023-04-25T09:18:41;1.77;;;1.50;;
14396;SDS011;50653;47.810;13.022;2023-04-25T09:21:08;1.10;;;1.00;;
14396;SDS011;50653;47.810;13.022;2023-04-25T09:23:39;3.30;;;1.30;;
14396;SDS011;50653;47.810;13.022;2023-04-25T09:26:15;1.10;;;1.00;;
14396;SDS011;50653;47.810;13.022;2023-04-25T09:28:43;1.30;;;1.20;;
14396;SDS011;50653;47.810;13.022;2023-04-25T09:31:11;3.30;;;0.90;;
14396;SDS011;50653;47.810;13.022;2023-04-25T09:33:44;0.90;;;0.90;;
14396;SDS011;50653;47.810;13.022;2023-04-25T09:36:10;3.77;;;1.20;;
14396;SDS011;50653;47.810;13.022;2023-04-25T09:38:46;1.33;;;0.80;;
14396;SDS011;50653;47.810;13.022;2023-04-25T09:41:23;1.10;;;0.93;;
14396;SDS011;50653;47.810;13.022;2023-04-25T09:43:56;2.80;;;1.00;;
14396;SDS011;50653;47.810;13.022;2023-04-25T09:46:25;1.57;;;1.10;;
14396;SDS011;50653;47.810;13.022;2023-04-25T09:48:54;2.00;;;1.30;;
14396;SDS011;50653;47.810;13.022;2023-04-25T09:51:27;1.57;;;1.30;;
14396;SDS011;50653;47.810;13.022;2023-04-25T09:53:55;3.03;;;1.10;;
14396;SDS011;50653;47.810;13.022;2023-04-25T09:56:55;4.80;;;1.40;;
14396;SDS011;50653;47.810;13.022;2023-04-25T09:59:23;4.40;;;1.83;;
14396;SDS011;50653;47.810;13.022;2023-04-25T10:01:49;2.53;;;1.60;;
14396;SDS011;50653;47.810;13.022;2023-04-25T10:04:24;2.70;;;1.63;;
14396;SDS011;50653;47.810;13.022;2023-04-25T10:07:06;1.60;;;1.50;;
14396;SDS011;50653;47.810;13.022;2023-04-25T10:09:33;4.23;;;1.80;;
14396;SDS011;50653;47.810;13.022;2023-04-25T10:12:01;4.23;;;3.83;;
14396;SDS011;50653;47.810;13.022;2023-04-25T10:14:29;1.67;;;1.57;;
14396;SDS011;50653;47.810;13.022;2023-04-25T10:16:57;1.70;;;1.43;;
14396;SDS011;50653;47.810;13.022;2023-04-25T10:19:24;5.80;;;2.90;;
14396;SDS011;50653;47.810;13.022;2023-04-25T10:21:55;2.17;;;1.97;;
14396;SDS011;50653;47.810;13.022;2023-04-25T10:24:38;3.00;;;2.80;;
14396;SDS011;50653;47.810;13.022;2023-04-25T10:27:05;3.90;;;2.70;;
14396;SDS011;50653;47.810;13.022;2023-04-25T10:29:32;4.20;;;3.00;;
14396;SDS011;50653;47.810;13.022;2023-04-25T10:31:57;2.20;;;2.10;;
14396;SDS011;50653;47.810;13.022;2023-04-25T10:34:24;3.97;;;3.67;;
14396;SDS011;50653;47.810;13.022;2023-04-25T10:37:02;4.27;;;2.37;;
14396;SDS011;50653;47.810;13.022;2023-04-25T10:39:28;2.50;;;2.30;;
14396;SDS011;50653;47.810;13.022;2023-04-25T10:41:57;1.80;;;1.70;;
14396;SDS011;50653;47.810;13.022;2023-04-25T10:44:27;2.63;;;1.47;;
14396;SDS011;50653;47.810;13.022;2023-04-25T10:46:56;1.80;;;1.70;;
14396;SDS011;50653;47.810;13.022;2023-04-25T10:49:29;1.87;;;1.77;;
14396;SDS011;50653;47.810;13.022;2023-04-25T10:54:42;1.50;;;1.40;;
14396;SDS011;50653;47.810;13.022;2023-04-25T10:57:24;1.90;;;1.80;;
14396;SDS011;50653;47.810;13.022;2023-04-25T10:59:54;1.70;;;1.60;;
14396;SDS011;50653;47.810;13.022;2023-04-25T11:06:23;4.50;;;1.80;;
14396;SDS011;50653;47.810;13.022;2023-04-25T11:08:52;1.80;;;1.60;;
14396;SDS011;50653;47.810;13.022;2023-04-25T11:11:17;3.73;;;1.90;;
14396;SDS011;50653;47.810;13.022;2023-04-25T11:13:44;1.57;;;1.37;;
14396;SDS011;50653;47.810;13.022;2023-04-25T11:16:13;1.63;;;1.53;;
14396;SDS011;50653;47.810;13.022;2023-04-25T11:18:42;1.63;;;1.23;;
14396;SDS011;50653;47.810;13.022;2023-04-25T11:21:09;2.93;;;2.10;;
14396;SDS011;50653;47.810;13.022;2023-04-25T11:23:35;3.67;;;1.57;;
14396;SDS011;50653;47.810;13.022;2023-04-25T11:26:02;3.77;;;2.70;;
14396;SDS011;50653;47.810;13.022;2023-04-25T11:28:28;6.47;;;3.17;;
14396;SDS011;50653;47.810;13.022;2023-04-25T11:30:55;11.90;;;3.27;;
14396;SDS011;50653;47.810;13.022;2023-04-25T11:33:24;2.50;;;2.30;;
14396;SDS011;50653;47.810;13.022;2023-04-25T11:35:53;6.50;;;2.40;;
14396;SDS011;50653;47.810;13.022;2023-04-25T11:38:20;1.70;;;1.60;;
14396;SDS011;50653;47.810;13.022;2023-04-25T11:40:51;1.20;;;1.10;;
14396;SDS011;50653;47.810;13.022;2023-04-25T11:46:22;1.60;;;1.50;;
14396;SDS011;50653;47.810;13.022;2023-04-25T11:48:48;2.40;;;0.93;;
14396;SDS011;50653;47.810;13.022;2023-04-25T11:51:15;1.00;;;0.83;;
14396;SDS011;50653;47.810;13.022;2023-04-25T11:53:41;1.33;;;1.23;;
14396;SDS011;50653;47.810;13.022;2023-04-25T11:56:09;1.37;;;1.27;;
14396;SDS011;50653;47.810;13.022;2023-04-25T11:58:56;1.87;;;1.63;;
14396;SDS011;50653;47.810;13.022;2023-04-25T12:01:47;4.50;;;2.17;;
14396;SDS011;50653;47.810;13.022;2023-04-25T12:04:15;2.47;;;2.27;;
14396;SDS011;50653;47.810;13.022;2023-04-25T12:06:43;9.03;;;3.27;;
14396;SDS011;50653;47.810;13.022;2023-04-25T12:09:21;2.70;;;2.50;;
14396;SDS011;50653;47.810;13.022;2023-04-25T12:11:58;2.40;;;2.10;;
14396;SDS011;50653;47.810;13.022;2023-04-25T12:14:28;3.37;;;1.73;;
14396;SDS011;50653;47.810;13.022;2023-04-25T12:16:56;2.43;;;1.70;;
14396;SDS011;50653;47.810;13.022;2023-04-25T12:19:23;2.73;;;2.10;;
14396;SDS011;50653;47.810;13.022;2023-04-25T12:21:49;1.80;;;1.70;;
14396;SDS011;50653;47.810;13.022;2023-04-25T12:24:17;1.93;;;1.73;;
14396;SDS011;50653;47.810;13.022;2023-04-25T12:26:53;1.83;;;1.73;;
14396;SDS011;50653;47.810;13.022;2023-04-25T12:29:25;2.07;;;1.87;;
14396;SDS011;50653;47.810;13.022;2023-04-25T12:31:51;4.90;;;2.10;;
14396;SDS011;50653;47.810;13.022;2023-04-25T12:34:19;4.73;;;2.17;;
14396;SDS011;50653;47.810;13.022;2023-04-25T12:36:45;2.53;;;2.07;;
14396;SDS011;50653;47.810;13.022;2023-04-25T12:39:15;7.23;;;3.07;;
14396;SDS011;50653;47.810;13.022;2023-04-25T12:41:42;3.93;;;1.00;;
14396;SDS011;50653;47.810;13.022;2023-04-25T12:44:08;2.90;;;1.10;;
14396;SDS011;50653;47.810;13.022;2023-04-25T12:54:16;2.03;;;1.83;;
14396;SDS011;50653;47.810;13.022;2023-04-25T12:56:50;2.90;;;2.70;;
14396;SDS011;50653;47.810;13.022;2023-04-25T12:59:17;2.73;;;2.43;;
14396;SDS011;50653;47.810;13.022;2023-04-25T13:01:42;6.27;;;5.67;;
14396;SDS011;50653;47.810;13.022;2023-04-25T13:04:10;2.33;;;2.13;;
14396;SDS011;50653;47.810;13.022;2023-04-25T13:06:39;2.13;;;1.93;;
14396;SDS011;50653;47.810;13.022;2023-04-25T13:09:13;1.80;;;1.70;;
14396;SDS011;50653;47.810;13.022;2023-04-25T13:11:40;2.50;;;1.93;;
14396;SDS011;50653;47.810;13.022;2023-04-25T13:14:06;2.97;;;1.87;;
14396;SDS011;50653;47.810;13.022;2023-04-25T13:16:38;1.30;;;1.00;;
14396;SDS011;50653;47.810;13.022;2023-04-25T13:19:06;1.43;;;1.33;;
14396;SDS011;50653;47.810;13.022;2023-04-25T13:22:02;2.00;;;1.90;;
14396;SDS011;50653;47.810;13.022;2023-04-25T13:24:29;2.07;;;1.97;;
14396;SDS011;50653;47.810;13.022;2023-04-25T13:26:58;1.90;;;1.80;;
14396;SDS011;50653;47.810;13.022;2023-04-25T13:29:24;7.60;;;6.87;;
14396;SDS011;50653;47.810;13.022;2023-04-25T13:31:49;12.07;;;11.13;;
14396;SDS011;50653;47.810;13.022;2023-04-25T13:34:15;14.63;;;11.50;;
14396;SDS011;50653;47.810;13.022;2023-04-25T13:36:41;16.70;;;13.88;;
14396;SDS011;50653;47.810;13.022;2023-04-25T13:39:06;14.57;;;13.13;;
14396;SDS011;50653;47.810;13.022;2023-04-25T13:48:47;9.50;;;7.78;;
14396;SDS011;50653;47.810;13.022;2023-04-25T13:51:14;8.15;;;7.35;;
14396;SDS011;50653;47.810;13.022;2023-04-25T13:53:41;7.47;;;6.88;;
14396;SDS011;50653;47.810;13.022;2023-04-25T13:56:07;6.93;;;6.53;;
14396;SDS011;50653;47.810;13.022;2023-04-25T13:58:33;9.00;;;8.30;;
14396;SDS011;50653;47.810;13.022;2023-04-25T14:01:01;9.45;;;8.70;;
14396;SDS011;50653;47.810;13.022;2023-04-25T14:03:28;10.52;;;9.52;;
14396;SDS011;50653;47.810;13.022;2023-04-25T14:05:55;20.33;;;14.88;;
14396;SDS011;50653;47.810;13.022;2023-04-25T14:08:20;11.10;;;9.90;;
14396;SDS011;50653;47.810;13.022;2023-04-25T14:10:49;8.73;;;7.78;;
14396;SDS011;50653;47.810;13.022;2023-04-25T14:13:14;9.90;;;7.55;;
14396;SDS011;50653;47.810;13.022;2023-04-25T14:15:40;6.25;;;5.75;;
14396;SDS011;50653;47.810;13.022;2023-04-25T14:18:19;5.40;;;5.10;;
14396;SDS011;50653;47.810;13.022;2023-04-25T14:21:08;7.80;;;7.20;;
14396;SDS011;50653;47.810;13.022;2023-04-25T14:23:35;18.58;;;16.27;;
14396;SDS011;50653;47.810;13.022;2023-04-25T14:32:09;9.05;;;8.00;;
14396;SDS011;50653;47.810;13.022;2023-04-25T14:34:38;7.60;;;7.10;;
14396;SDS011;50653;47.810;13.022;2023-04-25T14:37:04;8.20;;;7.60;;
14396;SDS011;50653;47.810;13.022;2023-04-25T14:39:33;10.02;;;9.02;;
14396;SDS011;50653;47.810;13.022;2023-04-25T14:42:03;7.53;;;6.93;;
14396;SDS011;50653;47.810;13.022;2023-04-25T14:44:31;8.25;;;7.47;;
14396;SDS011;50653;47.810;13.022;2023-04-25T14:47:10;8.17;;;7.43;;
14396;SDS011;50653;47.810;13.022;2023-04-25T14:49:53;8.32;;;7.47;;
14396;SDS011;50653;47.810;13.022;2023-04-25T14:55:39;9.77;;;8.88;;
14396;SDS011;50653;47.810;13.022;2023-04-25T14:58:41;9.02;;;8.30;;
14396;SDS011;50653;47.810;13.022;2023-04-25T15:49:58;7.90;;;7.20;;
14396;SDS011;50653;47.810;13.022;2023-04-25T15:53:27;7.20;;;6.80;;
14396;SDS011;50653;47.810;13.022;2023-04-25T16:06:58;8.50;;;7.90;;
14396;SDS011;50653;47.810;13.022;2023-04-25T16:09:24;8.20;;;7.40;;
14396;SDS011;50653;47.810;13.022;2023-04-25T16:12:10;4.30;;;3.90;;
14396;SDS011;50653;47.810;13.022;2023-04-25T16:14:59;1.70;;;1.60;;
14396;SDS011;50653;47.810;13.022;2023-04-25T16:17:35;3.80;;;3.47;;
14396;SDS011;50653;47.810;13.022;2023-04-25T16:20:07;2.30;;;2.10;;
14396;SDS011;50653;47.810;13.022;2023-04-25T16:23:45;1.30;;;1.20;;
14396;SDS011;50653;47.810;13.022;2023-04-25T16:26:13;4.40;;;3.30;;